createdAt,value
2023-04-02T00:00:37.100Z,21.00
2023-04-02T00:03:07.082Z,21.00
2023-04-02T00:05:46.417Z,17.00
2023-04-02T00:08:23.889Z,19.00
2023-04-02T00:10:52.462Z,23.50
2023-04-02T00:13:36.532Z,25.50
2023-04-02T00:16:07.931Z,19.50
2023-04-02T00:18:40.308Z,18.50
2023-04-02T00:21:20.477Z,24.00
2023-04-02T00:23:47.484Z,22.50
2023-04-02T00:26:34.341Z,21.00
2023-04-02T00:29:03.574Z,19.50
2023-04-02T00:31:31.477Z,20.00
2023-04-02T00:34:03.464Z,20.00
2023-04-02T00:36:33.212Z,27.75
2023-04-02T00:39:04.442Z,29.00
2023-04-02T00:41:32.718Z,30.50
2023-04-02T00:44:00.949Z,31.00
2023-04-02T00:46:39.169Z,26.25
2023-04-02T00:49:10.590Z,22.00
2023-04-02T00:51:44.739Z,30.25
2023-04-02T00:54:13.195Z,24.25
2023-04-02T00:56:45.111Z,20.00
2023-04-02T00:59:26.569Z,20.00
2023-04-02T01:02:16.795Z,20.00
2023-04-02T01:05:02.659Z,26.25
2023-04-02T01:07:53.956Z,28.00
2023-04-02T01:10:51.379Z,23.00
2023-04-02T01:13:28.993Z,22.00
2023-04-02T01:16:04.961Z,25.00
2023-04-02T01:19:20.173Z,29.00
2023-04-02T01:21:47.057Z,24.00
2023-04-02T01:24:14.643Z,28.50
2023-04-02T01:26:58.638Z,27.00
2023-04-02T01:29:40.408Z,24.25
2023-04-02T01:32:12.046Z,24.00
2023-04-02T01:34:41.429Z,29.75
2023-04-02T01:37:14.342Z,30.00
2023-04-02T01:40:06.350Z,26.00
2023-04-02T01:42:52.078Z,19.50
2023-04-02T01:45:21.407Z,28.75
2023-04-02T01:47:49.982Z,33.50
2023-04-02T01:50:20.139Z,33.50
2023-04-02T01:52:50.586Z,26.75
2023-04-02T01:55:24.777Z,25.50
2023-04-02T01:57:54.491Z,22.00
2023-04-02T02:00:21.483Z,22.00
2023-04-02T02:02:52.157Z,23.25
2023-04-02T02:05:22.458Z,29.25
2023-04-02T02:07:52.096Z,29.25
2023-04-02T02:10:25.998Z,22.00
2023-04-02T02:12:53.053Z,29.25
2023-04-02T02:15:22.887Z,30.00
2023-04-02T02:17:50.512Z,22.50
2023-04-02T02:20:18.217Z,28.25
2023-04-02T02:22:48.558Z,30.25
2023-04-02T02:25:19.567Z,32.50
2023-04-02T02:27:59.497Z,32.75
2023-04-02T02:30:49.413Z,36.50
2023-04-02T02:33:26.920Z,31.00
2023-04-02T02:36:16.658Z,32.00
2023-04-02T02:38:49.595Z,26.00
2023-04-02T02:41:39.586Z,32.00
2023-04-02T02:44:11.859Z,27.75
2023-04-02T02:46:54.668Z,25.25
2023-04-02T02:49:28.101Z,24.00
2023-04-02T02:52:21.192Z,29.25
2023-04-02T02:55:16.004Z,29.00
2023-04-02T02:58:26.581Z,23.75
2023-04-02T03:01:14.081Z,24.50
2023-04-02T03:03:43.933Z,29.50
2023-04-02T03:06:15.895Z,31.00
2023-04-02T03:08:54.412Z,29.75
2023-04-02T03:11:35.089Z,28.00
2023-04-02T03:14:36.418Z,26.25
2023-04-02T03:17:17.731Z,27.00
2023-04-02T03:20:01.228Z,24.00
2023-04-02T03:22:34.872Z,29.50
2023-04-02T03:25:26.790Z,25.75
2023-04-02T03:28:02.393Z,22.00
2023-04-02T03:30:50.869Z,26.00
2023-04-02T03:33:31.957Z,26.00
2023-04-02T03:36:39.172Z,27.00
2023-04-02T03:39:33.320Z,24.00
2023-04-02T03:42:08.024Z,25.75
2023-04-02T03:44:38.325Z,24.00
2023-04-02T03:47:14.617Z,27.25
2023-04-02T03:49:56.006Z,25.75
2023-04-02T03:52:28.629Z,27.00
2023-04-02T03:55:02.051Z,25.50
2023-04-02T03:57:43.819Z,31.00
2023-04-02T04:00:27.317Z,30.00
2023-04-02T04:03:03.269Z,32.00
2023-04-02T04:05:45.056Z,33.00
2023-04-02T04:08:20.952Z,31.00
2023-04-02T04:10:53.128Z,27.75
2023-04-02T04:13:29.271Z,32.00
2023-04-02T04:16:20.309Z,30.00
2023-04-02T04:18:57.040Z,30.25
2023-04-02T04:21:28.700Z,34.75
2023-04-02T04:24:16.730Z,27.75
2023-04-02T04:26:53.220Z,24.00
2023-04-02T04:29:50.408Z,32.25
2023-04-02T04:32:26.853Z,26.25
2023-04-02T04:35:02.696Z,27.50
2023-04-02T04:37:39.553Z,28.25
2023-04-02T04:40:19.929Z,26.50
2023-04-02T04:42:55.044Z,22.00
2023-04-02T04:45:28.840Z,24.50
2023-04-02T04:48:07.157Z,29.00
2023-04-02T04:50:41.497Z,31.00
2023-04-02T04:53:17.431Z,25.00
2023-04-02T04:55:47.070Z,24.00
2023-04-02T04:58:24.706Z,22.00
2023-04-02T05:01:14.375Z,31.25
2023-04-02T05:04:06.072Z,33.25
2023-04-02T05:06:49.683Z,31.00
2023-04-02T05:09:31.897Z,28.00
2023-04-02T05:12:17.848Z,26.00
2023-04-02T05:15:11.970Z,22.25
2023-04-02T05:17:55.873Z,25.00
2023-04-02T05:20:29.708Z,25.75
2023-04-02T05:23:19.078Z,27.50
2023-04-02T05:26:33.916Z,30.00
2023-04-02T05:29:15.485Z,32.00
2023-04-02T05:31:50.892Z,29.00
2023-04-02T05:34:25.793Z,26.00
2023-04-02T05:36:54.499Z,25.00
2023-04-02T05:39:26.630Z,30.75
2023-04-02T05:42:06.997Z,29.00
2023-04-02T05:45:20.621Z,28.00
2023-04-02T05:47:52.348Z,28.00
2023-04-02T05:50:35.594Z,28.75
2023-04-02T05:53:21.452Z,27.00
2023-04-02T05:56:17.935Z,31.50
2023-04-02T05:58:55.107Z,34.00
2023-04-02T06:01:44.541Z,36.50
2023-04-02T06:04:26.907Z,31.50
2023-04-02T06:07:26.645Z,33.00
2023-04-02T06:10:06.754Z,33.25
2023-04-02T06:12:44.995Z,36.25
2023-04-02T06:15:18.736Z,32.00
2023-04-02T06:18:00.159Z,29.00
2023-04-02T06:20:28.397Z,31.00
2023-04-02T06:23:16.504Z,32.50
2023-04-02T06:25:57.757Z,32.00
2023-04-02T06:28:51.075Z,28.50
2023-04-02T06:31:45.168Z,30.50
2023-04-02T06:34:29.078Z,31.00
2023-04-02T06:37:32.076Z,33.00
2023-04-02T06:40:37.207Z,29.00
2023-04-02T06:43:27.809Z,27.00
2023-04-02T06:46:08.065Z,26.25
2023-04-02T06:49:02.417Z,31.00
2023-04-02T06:51:33.589Z,32.00
2023-04-02T06:54:02.786Z,27.00
2023-04-02T06:56:38.628Z,26.25
2023-04-02T06:59:06.691Z,29.00
2023-04-02T07:01:40.282Z,27.00
2023-04-02T07:04:08.997Z,23.00
2023-04-02T07:06:44.553Z,24.00
2023-04-02T07:09:14.016Z,26.50
2023-04-02T07:11:47.269Z,26.00
2023-04-02T07:14:15.017Z,23.25
2023-04-02T07:16:43.441Z,29.00
2023-04-02T07:19:19.201Z,25.25
2023-04-02T07:21:47.087Z,23.00
2023-04-02T07:24:14.424Z,29.00
2023-04-02T07:26:41.404Z,32.25
2023-04-02T07:29:13.773Z,32.25
2023-04-02T07:31:40.806Z,32.25
2023-04-02T07:34:08.321Z,32.00
2023-04-02T07:36:35.233Z,31.50
2023-04-02T07:39:02.612Z,27.00
2023-04-02T07:41:29.650Z,30.75
2023-04-02T07:43:56.632Z,32.50
2023-04-02T07:46:26.218Z,31.25
2023-04-02T07:48:53.235Z,32.25
2023-04-02T07:51:26.121Z,29.75
2023-04-02T07:53:53.609Z,34.00
2023-04-02T07:56:20.833Z,32.00
2023-04-02T07:58:48.472Z,34.00
2023-04-02T08:01:21.096Z,30.75
2023-04-02T08:03:48.117Z,32.25
2023-04-02T08:06:15.336Z,33.00
2023-04-02T08:08:42.845Z,30.00
2023-04-02T08:11:10.723Z,32.75
2023-04-02T08:13:38.188Z,32.00
2023-04-02T08:16:06.907Z,30.00
2023-04-02T08:18:34.578Z,34.25
2023-04-02T08:21:01.654Z,31.00
2023-04-02T08:23:28.625Z,28.00
2023-04-02T08:25:55.893Z,28.00
2023-04-02T08:28:22.976Z,30.75
2023-04-02T08:30:50.585Z,29.00
2023-04-02T08:33:17.850Z,32.00
2023-04-02T08:35:46.291Z,30.00
2023-04-02T08:38:19.116Z,32.00
2023-04-02T08:40:50.733Z,33.00
2023-04-02T08:43:33.282Z,35.00
2023-04-02T08:46:18.458Z,33.00
2023-04-02T08:48:55.923Z,32.00
2023-04-02T08:51:27.123Z,32.00
2023-04-02T08:53:56.707Z,29.00
2023-04-02T08:56:34.089Z,31.00
2023-04-02T08:59:09.366Z,32.00
2023-04-02T09:01:41.961Z,33.50
2023-04-02T09:04:19.086Z,35.00
2023-04-02T09:06:47.337Z,34.25
2023-04-02T09:09:16.551Z,34.00
2023-04-02T09:11:57.308Z,34.00
2023-04-02T09:14:42.247Z,33.00
2023-04-02T09:17:27.752Z,34.75
2023-04-02T09:20:03.997Z,35.75
2023-04-02T09:22:33.532Z,34.25
2023-04-02T09:25:03.955Z,33.50
2023-04-02T09:27:36.063Z,34.00
2023-04-02T09:30:21.749Z,35.00
2023-04-02T09:32:48.873Z,36.00
2023-04-02T09:35:27.290Z,32.75
2023-04-02T09:38:20.804Z,34.75
2023-04-02T09:41:02.003Z,34.50
2023-04-02T09:43:37.752Z,34.00
2023-04-02T09:46:13.974Z,36.00
2023-04-02T09:48:45.389Z,32.75
2023-04-02T09:51:14.541Z,34.00
2023-04-02T09:53:47.046Z,35.00
2023-04-02T09:56:22.831Z,34.00
2023-04-02T09:59:19.009Z,32.00
2023-04-02T10:01:47.244Z,33.00
2023-04-02T10:04:40.190Z,32.25
2023-04-02T10:07:07.230Z,31.00
2023-04-02T10:09:36.888Z,32.50
2023-04-02T10:12:13.672Z,35.00
2023-04-02T10:14:44.824Z,34.50
2023-04-02T10:17:23.415Z,33.25
2023-04-02T10:20:01.635Z,34.25
2023-04-02T10:22:28.973Z,34.00
2023-04-02T10:24:58.173Z,36.00
2023-04-02T10:27:47.056Z,37.00
2023-04-02T10:30:16.568Z,36.00
2023-04-02T10:32:43.455Z,36.00
2023-04-02T10:35:35.449Z,36.00
2023-04-02T10:38:11.595Z,34.25
2023-04-02T10:40:47.953Z,35.50
2023-04-02T10:43:47.038Z,34.00
2023-04-02T10:46:25.116Z,37.00
2023-04-02T10:49:16.887Z,36.00
2023-04-02T10:52:05.356Z,37.00
2023-04-02T10:54:38.157Z,35.75
2023-04-02T10:57:39.163Z,36.00
2023-04-02T11:00:12.535Z,37.25
2023-04-02T11:02:56.939Z,38.75
2023-04-02T11:05:40.443Z,38.00
2023-04-02T11:08:27.530Z,37.25
2023-04-02T11:11:05.694Z,36.25
2023-04-02T11:13:56.784Z,36.50
2023-04-02T11:16:24.706Z,36.00
2023-04-02T11:19:16.566Z,38.00
2023-04-02T11:21:58.737Z,37.25
2023-04-02T11:24:30.448Z,38.00
2023-04-02T11:27:20.750Z,37.00
2023-04-02T11:29:53.867Z,38.50
2023-04-02T11:32:20.800Z,37.00
2023-04-02T11:34:56.347Z,37.50
2023-04-02T11:37:39.981Z,38.00
2023-04-02T11:40:13.015Z,38.00
2023-04-02T11:42:45.609Z,37.00
2023-04-02T11:45:21.542Z,38.50
2023-04-02T11:48:00.689Z,39.00
2023-04-02T11:50:32.258Z,37.00
2023-04-02T11:53:03.677Z,37.50
2023-04-02T11:55:32.719Z,38.00
2023-04-02T11:58:11.263Z,36.50
2023-04-02T12:01:06.179Z,37.25
2023-04-02T12:03:57.955Z,37.00
2023-04-02T12:07:06.546Z,38.00
2023-04-02T12:09:49.116Z,36.00
2023-04-02T12:12:25.803Z,35.00
2023-04-02T12:14:57.845Z,35.50
2023-04-02T12:17:34.621Z,36.00
2023-04-02T12:20:07.627Z,37.00
2023-04-02T12:22:39.927Z,37.25
2023-04-02T12:25:37.380Z,37.50
2023-04-02T12:28:10.192Z,36.00
2023-04-02T12:30:41.361Z,37.00
2023-04-02T12:33:35.834Z,36.00
2023-04-02T12:36:05.465Z,38.00
2023-04-02T12:38:43.455Z,38.00
2023-04-02T12:41:30.801Z,36.00
2023-04-02T12:44:02.033Z,36.00
2023-04-02T12:46:31.078Z,37.00
2023-04-02T12:49:30.460Z,39.00
2023-04-02T12:51:58.378Z,36.00
2023-04-02T12:54:25.443Z,36.50
2023-04-02T12:56:52.436Z,37.50
2023-04-02T12:59:34.216Z,38.00
2023-04-02T13:02:03.801Z,36.50
2023-04-02T13:04:30.753Z,36.00
2023-04-02T13:06:57.735Z,36.50
2023-04-02T13:09:41.004Z,38.00
2023-04-02T13:12:25.497Z,38.50
2023-04-02T13:14:57.813Z,36.50
2023-04-02T13:17:44.227Z,36.00
2023-04-02T13:20:34.958Z,36.25
2023-04-02T13:23:25.744Z,36.50
2023-04-02T13:25:53.537Z,37.00
2023-04-02T13:28:20.909Z,36.50
2023-04-02T13:30:48.190Z,36.50
2023-04-02T13:33:15.832Z,37.00
2023-04-02T13:35:43.919Z,36.50
2023-04-02T13:38:10.838Z,38.00
2023-04-02T13:40:38.706Z,36.75
2023-04-02T13:43:07.017Z,36.25
2023-04-02T13:45:39.281Z,36.00
2023-04-02T13:48:06.519Z,36.75
2023-04-02T13:50:35.197Z,38.00
2023-04-02T13:53:09.034Z,37.00
2023-04-02T13:55:42.098Z,37.00
2023-04-02T13:58:10.712Z,38.50
2023-04-02T14:00:37.824Z,38.00
2023-04-02T14:03:25.041Z,37.25
2023-04-02T14:06:26.364Z,37.00
2023-04-02T14:09:02.410Z,37.00
2023-04-02T14:11:41.364Z,37.25
2023-04-02T14:14:39.846Z,38.25
2023-04-02T14:17:28.378Z,37.00
2023-04-02T14:20:04.404Z,37.00
2023-04-02T14:22:57.032Z,38.00
2023-04-02T14:25:35.588Z,36.00
2023-04-02T14:28:19.406Z,36.00
2023-04-02T14:31:07.887Z,35.50
2023-04-02T14:33:55.648Z,36.25
2023-04-02T14:36:22.558Z,34.00
2023-04-02T14:38:57.805Z,36.25
2023-04-02T14:42:03.056Z,35.00
2023-04-02T14:44:36.818Z,35.00
2023-04-02T14:48:08.421Z,35.50
2023-04-02T14:50:40.818Z,35.50
2023-04-02T14:53:15.897Z,36.00
2023-04-02T14:55:44.723Z,35.50
2023-04-02T14:58:19.207Z,36.00
2023-04-02T15:01:03.223Z,34.50
2023-04-02T15:03:37.585Z,36.00
2023-04-02T15:06:11.965Z,35.00
2023-04-02T15:08:48.226Z,37.50
2023-04-02T15:11:27.216Z,35.25
2023-04-02T15:14:04.377Z,35.25
2023-04-02T15:16:31.693Z,35.50
2023-04-02T15:19:03.529Z,36.00
2023-04-02T15:21:55.879Z,36.00
2023-04-02T15:24:51.669Z,34.50
2023-04-02T15:27:33.924Z,36.00
2023-04-02T15:30:20.255Z,36.00
2023-04-02T15:32:47.311Z,36.75
2023-04-02T15:35:33.771Z,37.00
2023-04-02T15:38:12.606Z,34.25
2023-04-02T15:40:59.477Z,35.50
2023-04-02T15:43:31.108Z,37.00
2023-04-02T15:46:35.600Z,38.50
2023-04-02T15:49:28.214Z,37.00
2023-04-02T15:52:08.099Z,38.00
2023-04-02T15:54:45.153Z,41.00
2023-04-02T15:57:24.013Z,42.75
2023-04-02T16:00:01.222Z,44.50
2023-04-02T16:03:18.805Z,45.75
2023-04-02T16:06:09.937Z,41.75
2023-04-02T16:08:59.314Z,45.00
2023-04-02T16:11:26.834Z,46.50
2023-04-02T16:14:24.135Z,49.00
2023-04-02T16:16:54.672Z,51.75
2023-04-02T16:19:33.713Z,55.50
2023-04-02T16:22:16.550Z,56.25
2023-04-02T16:24:43.653Z,57.75
2023-04-02T16:27:34.460Z,65.75
2023-04-02T16:30:22.924Z,57.25
2023-04-02T16:32:55.552Z,55.25
2023-04-02T16:35:56.233Z,61.00
2023-04-02T16:38:58.439Z,63.00
2023-04-02T16:41:55.826Z,60.75
2023-04-02T16:44:34.895Z,56.00
2023-04-02T16:47:30.014Z,52.50
2023-04-02T16:50:34.728Z,53.00
2023-04-02T16:53:20.286Z,52.00
2023-04-02T16:55:50.344Z,54.00
2023-04-02T16:58:28.395Z,53.50
2023-04-02T17:01:14.857Z,51.00
2023-04-02T17:04:02.536Z,53.75
2023-04-02T17:06:47.949Z,54.00
2023-04-02T17:09:22.743Z,55.00
2023-04-02T17:11:55.518Z,55.00
2023-04-02T17:15:01.208Z,54.00
2023-04-02T17:17:47.602Z,55.50
2023-04-02T17:20:23.215Z,54.50
2023-04-02T17:22:51.778Z,56.00
2023-04-02T17:25:33.660Z,51.50
2023-04-02T17:28:02.712Z,51.50
2023-04-02T17:30:43.522Z,51.75
2023-04-02T17:33:16.290Z,51.75
2023-04-02T17:36:01.434Z,54.25
2023-04-02T17:39:08.399Z,57.50
2023-04-02T17:41:53.725Z,60.25
2023-04-02T17:44:31.654Z,63.00
2023-04-02T17:47:14.284Z,64.00
2023-04-02T17:49:59.738Z,59.00
2023-04-02T17:52:55.567Z,57.00
2023-04-02T17:55:53.427Z,57.00
2023-04-02T17:58:29.230Z,62.00
2023-04-02T18:00:56.221Z,56.00
2023-04-02T18:03:38.203Z,51.25
2023-04-02T18:06:16.202Z,51.00
2023-04-02T18:09:00.769Z,51.00
2023-04-02T18:11:52.191Z,48.75
2023-04-02T18:14:19.071Z,50.25
2023-04-02T18:17:30.675Z,49.00
2023-04-02T18:20:15.360Z,46.75
2023-04-02T18:23:21.011Z,47.25
2023-04-02T18:26:25.310Z,45.25
2023-04-02T18:29:21.263Z,44.00
2023-04-02T18:32:17.530Z,42.00
2023-04-02T18:34:59.804Z,48.50
2023-04-02T18:37:33.781Z,51.25
2023-04-02T18:40:16.182Z,47.75
2023-04-02T18:42:48.450Z,44.00
2023-04-02T18:45:28.789Z,43.25
2023-04-02T18:47:58.735Z,40.00
2023-04-02T18:50:38.068Z,38.00
2023-04-02T18:53:14.458Z,36.25
2023-04-02T18:55:48.516Z,33.50
2023-04-02T18:58:23.321Z,29.50
2023-04-02T19:00:51.150Z,30.50
2023-04-02T19:03:32.947Z,32.00
2023-04-02T19:06:12.121Z,32.00
2023-04-02T19:08:58.808Z,34.00
2023-04-02T19:11:27.004Z,33.00
2023-04-02T19:14:07.131Z,31.50
2023-04-02T19:16:46.351Z,28.25
2023-04-02T19:19:26.826Z,27.00
2023-04-02T19:22:11.917Z,34.50
2023-04-02T19:25:00.262Z,34.50
2023-04-02T19:27:30.163Z,34.00
2023-04-02T19:30:28.955Z,28.00
2023-04-02T19:32:59.108Z,22.00
2023-04-02T19:35:36.156Z,25.00
2023-04-02T19:38:22.119Z,27.00
2023-04-02T19:41:04.290Z,31.50
2023-04-02T19:43:31.359Z,26.75
2023-04-02T19:45:59.467Z,29.00
2023-04-02T19:48:30.762Z,32.50
2023-04-02T19:50:57.990Z,31.00
2023-04-02T19:53:24.850Z,26.00
2023-04-02T19:55:51.859Z,25.00
2023-04-02T19:58:32.426Z,25.50
2023-04-02T20:01:00.088Z,24.50
2023-04-02T20:03:27.383Z,23.00
2023-04-02T20:05:54.511Z,22.50
2023-04-02T20:08:21.363Z,22.00
2023-04-02T20:10:48.306Z,28.50
2023-04-02T20:13:15.219Z,30.00
2023-04-02T20:15:42.164Z,32.25
2023-04-02T20:18:09.312Z,27.00
2023-04-02T20:20:37.659Z,23.25
2023-04-02T20:23:05.078Z,26.00
2023-04-02T20:25:32.417Z,27.75
2023-04-02T20:27:59.341Z,28.00
2023-04-02T20:30:26.398Z,24.50
2023-04-02T20:32:53.403Z,24.00
2023-04-02T20:35:20.479Z,27.00
2023-04-02T20:37:47.275Z,26.50
2023-04-02T20:40:14.319Z,26.75
2023-04-02T20:42:41.250Z,25.50
2023-04-02T20:45:09.023Z,26.25
2023-04-02T20:47:35.908Z,31.25
2023-04-02T20:50:02.927Z,30.25
2023-04-02T20:52:29.850Z,22.50
2023-04-02T20:54:56.719Z,28.75
2023-04-02T20:57:23.563Z,32.75
2023-04-02T20:59:50.682Z,26.25
2023-04-02T21:02:17.545Z,22.50
2023-04-02T21:04:44.443Z,24.75
2023-04-02T21:07:11.336Z,23.75
2023-04-02T21:09:38.280Z,29.75
2023-04-02T21:12:05.487Z,25.00
2023-04-02T21:14:32.389Z,26.00
2023-04-02T21:16:59.308Z,25.00
2023-04-02T21:19:26.268Z,21.00
2023-04-02T21:21:55.033Z,25.25
2023-04-02T21:24:21.996Z,31.00
2023-04-02T21:26:50.038Z,28.50
2023-04-02T21:29:17.481Z,25.00
2023-04-02T21:31:44.622Z,31.00
2023-04-02T21:34:16.499Z,25.50
2023-04-02T21:36:45.757Z,24.25
2023-04-02T21:39:20.879Z,22.00
2023-04-02T21:41:49.700Z,26.00
2023-04-02T21:44:18.744Z,27.75
2023-04-02T21:46:46.389Z,24.00
2023-04-02T21:49:16.975Z,27.25
2023-04-02T21:51:45.622Z,24.00
2023-04-02T21:54:12.986Z,22.00
2023-04-02T21:56:43.198Z,26.50
2023-04-02T21:59:12.462Z,31.25
2023-04-02T22:01:42.332Z,30.00
2023-04-02T22:04:15.069Z,23.50
2023-04-02T22:06:42.979Z,26.75
2023-04-02T22:09:15.694Z,30.00
2023-04-02T22:11:50.289Z,25.50
2023-04-02T22:14:17.884Z,20.00
2023-04-02T22:16:44.816Z,21.00
2023-04-02T22:19:14.690Z,21.00
2023-04-02T22:21:42.050Z,25.75
2023-04-02T22:24:13.590Z,22.50
2023-04-02T22:26:41.211Z,27.50
2023-04-02T22:29:08.576Z,22.00
2023-04-02T22:31:35.633Z,23.50
2023-04-02T22:34:03.988Z,26.50
2023-04-02T22:36:31.609Z,33.50
2023-04-02T22:38:59.827Z,24.00
2023-04-02T22:41:28.869Z,29.00
2023-04-02T22:43:56.829Z,23.25
2023-04-02T22:46:25.832Z,31.25
2023-04-02T22:48:53.065Z,25.25
2023-04-02T22:51:21.987Z,26.25
2023-04-02T22:53:49.732Z,31.00
2023-04-02T22:56:19.703Z,20.50
2023-04-02T22:58:46.520Z,23.75
2023-04-02T23:01:15.422Z,24.25
2023-04-02T23:03:43.092Z,18.75
2023-04-02T23:06:12.916Z,16.25
2023-04-02T23:08:40.795Z,22.00
2023-04-02T23:11:09.309Z,21.50
2023-04-02T23:13:37.101Z,20.00
2023-04-02T23:16:06.630Z,20.00
2023-04-02T23:18:38.203Z,25.75
2023-04-02T23:21:05.895Z,24.00
2023-04-02T23:23:33.319Z,28.00
2023-04-02T23:26:10.710Z,24.00
2023-04-02T23:28:39.905Z,24.00
2023-04-02T23:31:09.356Z,25.00
2023-04-02T23:33:36.515Z,27.25
2023-04-02T23:36:08.833Z,24.50
2023-04-02T23:38:36.013Z,20.00
2023-04-02T23:41:03.083Z,19.00
2023-04-02T23:43:30.052Z,27.25
2023-04-02T23:45:57.082Z,26.25
2023-04-02T23:48:24.136Z,25.75
2023-04-02T23:50:51.120Z,24.00
2023-04-02T23:53:18.206Z,27.25
2023-04-02T23:55:45.068Z,23.00
2023-04-02T23:58:11.953Z,22.00
